Time,TemperatureF,DewpointF,PressureIn,WindDirection,WindDirectionDegrees,WindSpeedMPH,WindSpeedGustMPH,Humidity,HourlyPrecipIn,Conditions,Clouds,dailyrainin,SoftwareType,DateUTC
2013-12-02 00:01:00,32.4,25.3,29.99,NNE,22,0.0,0.0,75,0.00,,,0.00,WUHU21623XXSP,2013-12-02 05:01:00,
2013-12-02 00:07:00,32.4,25.3,29.99,NNE,22,0.0,0.0,75,0.00,,,0.00,WUHU21623XXSP,2013-12-02 05:07:00,
2013-12-02 00:12:00,32.5,25.8,29.99,NNE,22,0.0,0.0,76,0.00,,,0.00,WUHU21623XXSP,2013-12-02 05:12:00,
2013-12-02 00:17:00,32.7,26.0,29.99,NNE,22,0.0,0.0,76,0.00,,,0.00,WUHU21623XXSP,2013-12-02 05:17:00,
2013-12-02 00:22:00,32.7,26.0,29.99,NNE,22,0.0,0.0,76,0.00,,,0.00,WUHU21623XXSP,2013-12-02 05:22:00,
2013-12-02 00:27:00,32.7,26.0,29.99,NE,45,0.0,0.0,76,0.00,,,0.00,WUHU21623XXSP,2013-12-02 05:27:00,
2013-12-02 00:32:00,32.9,26.1,29.99,NE,45,0.0,0.0,76,0.00,,,0.00,WUHU21623XXSP,2013-12-02 05:32:00,
2013-12-02 00:37:00,32.9,26.1,29.98,NE,45,0.0,0.0,76,0.00,,,0.00,WUHU21623XXSP,2013-12-02 05:37:00,
2013-12-02 00:42:00,32.9,26.1,29.98,NE,45,0.0,0.0,76,0.00,,,0.00,WUHU21623XXSP,2013-12-02 05:42:00,
2013-12-02 00:47:00,33.1,26.3,29.99,NE,45,0.0,0.0,76,0.00,,,0.00,WUHU21623XXSP,2013-12-02 05:47:00,
2013-12-02 00:52:00,33.1,26.3,29.98,NE,45,0.0,0.0,76,0.00,,,0.00,WUHU21623XXSP,2013-12-02 05:52:00,
2013-12-02 00:57:00,33.1,26.3,29.97,NE,45,0.0,0.0,76,0.00,,,0.00,WUHU21623XXSP,2013-12-02 05:57:00,
2013-12-02 01:02:00,33.1,26.3,29.97,NE,45,0.0,0.0,76,0.00,,,0.00,WUHU21623XXSP,2013-12-02 06:02:00,
2013-12-02 01:07:00,33.1,26.3,29.97,NE,45,0.0,0.0,76,0.00,,,0.00,WUHU21623XXSP,2013-12-02 06:07:00,
2013-12-02 01:12:00,33.1,26.3,29.97,NE,45,0.0,0.0,76,0.00,,,0.00,WUHU21623XXSP,2013-12-02 06:12:00,
2013-12-02 01:17:00,33.1,26.3,29.97,NE,45,0.0,0.0,76,0.00,,,0.00,WUHU21623XXSP,2013-12-02 06:17:00,
2013-12-02 01:22:00,33.1,26.3,29.97,NE,45,0.0,0.0,76,0.00,,,0.00,WUHU21623XXSP,2013-12-02 06:22:00,
2013-12-02 01:27:00,33.1,26.3,29.97,NE,45,0.0,0.0,76,0.00,,,0.00,WUHU21623XXSP,2013-12-02 06:27:00,
2013-12-02 01:32:00,33.1,26.3,29.97,NE,45,0.0,0.0,76,0.00,,,0.00,WUHU21623XXSP,2013-12-02 06:32:00,
2013-12-02 01:37:00,33.1,26.3,29.97,NE,45,0.0,0.0,76,0.00,,,0.00,WUHU21623XXSP,2013-12-02 06:37:00,
2013-12-02 01:42:00,33.1,26.3,29.97,NE,45,0.0,0.0,76,0.00,,,0.00,WUHU21623XXSP,2013-12-02 06:42:00,
2013-12-02 01:47:00,33.1,26.3,29.97,NE,45,0.0,0.0,76,0.00,,,0.00,WUHU21623XXSP,2013-12-02 06:47:00,
2013-12-02 01:52:00,32.9,26.1,29.97,NE,45,0.0,0.0,76,0.00,,,0.00,WUHU21623XXSP,2013-12-02 06:52:00,
2013-12-02 01:57:00,32.9,26.1,29.97,NE,45,0.0,0.0,76,0.00,,,0.00,WUHU21623XXSP,2013-12-02 06:57:00,
2013-12-02 02:02:00,32.9,26.1,29.97,NE,45,0.0,0.0,76,0.00,,,0.00,WUHU21623XXSP,2013-12-02 07:02:00,
2013-12-02 02:09:00,32.9,26.1,29.97,NE,45,0.0,0.0,76,0.00,,,0.00,WUHU21623XXSP,2013-12-02 07:09:00,
2013-12-02 02:14:00,32.7,26.0,29.98,NE,45,0.0,0.0,76,0.00,,,0.00,WUHU21623XXSP,2013-12-02 07:14:00,
2013-12-02 02:19:00,32.7,26.0,29.98,NE,45,0.0,0.0,76,0.00,,,0.00,WUHU21623XXSP,2013-12-02 07:19:00,
2013-12-02 02:24:00,32.7,26.0,29.98,NE,45,0.0,0.0,76,0.00,,,0.00,WUHU21623XXSP,2013-12-02 07:24:00,
2013-12-02 02:29:00,32.7,26.0,29.98,NE,45,0.0,0.0,76,0.00,,,0.00,WUHU21623XXSP,2013-12-02 07:29:00,
2013-12-02 02:34:00,32.5,25.8,29.97,NE,45,0.0,0.0,76,0.00,,,0.00,WUHU21623XXSP,2013-12-02 07:34:00,
2013-12-02 02:39:00,32.5,25.8,29.97,NE,45,0.0,0.0,76,0.00,,,0.00,WUHU21623XXSP,2013-12-02 07:39:00,
2013-12-02 02:44:00,32.5,25.8,29.98,NE,45,0.0,0.0,76,0.00,,,0.00,WUHU21623XXSP,2013-12-02 07:44:00,
2013-12-02 02:49:00,32.5,25.8,29.98,NE,45,0.0,0.0,76,0.00,,,0.00,WUHU21623XXSP,2013-12-02 07:49:00,
2013-12-02 02:54:00,32.4,25.6,29.98,NE,45,0.0,0.0,76,0.00,,,0.00,WUHU21623XXSP,2013-12-02 07:54:00,
2013-12-02 02:59:00,32.4,25.6,29.97,NE,45,0.0,0.0,76,0.00,,,0.00,WUHU21623XXSP,2013-12-02 07:59:00,
2013-12-02 03:04:00,32.4,25.6,29.97,NE,45,0.0,0.0,76,0.00,,,0.00,WUHU21623XXSP,2013-12-02 08:04:00,
2013-12-02 03:09:00,32.4,25.6,29.97,NE,45,0.0,0.0,76,0.00,,,0.00,WUHU21623XXSP,2013-12-02 08:09:00,
2013-12-02 03:14:00,32.4,25.6,29.97,NE,45,0.0,0.0,76,0.00,,,0.00,WUHU21623XXSP,2013-12-02 08:14:00,
2013-12-02 03:19:00,32.4,25.6,29.97,NE,45,0.0,0.0,76,0.00,,,0.00,WUHU21623XXSP,2013-12-02 08:19:00,
2013-12-02 03:24:00,32.4,25.6,29.97,NE,45,0.0,0.0,76,0.00,,,0.00,WUHU21623XXSP,2013-12-02 08:24:00,
2013-12-02 03:29:00,32.4,25.6,29.97,NE,45,0.0,0.0,76,0.00,,,0.00,WUHU21623XXSP,2013-12-02 08:29:00,
2013-12-02 03:34:00,32.4,25.6,29.97,NE,45,0.0,0.0,76,0.00,,,0.00,WUHU21623XXSP,2013-12-02 08:34:00,
2013-12-02 03:39:00,32.4,26.0,29.97,NE,45,0.0,0.0,77,0.00,,,0.00,WUHU21623XXSP,2013-12-02 08:39:00,
2013-12-02 03:44:00,32.4,26.0,29.97,NE,45,0.0,0.0,77,0.00,,,0.00,WUHU21623XXSP,2013-12-02 08:44:00,
2013-12-02 03:49:00,32.4,26.0,29.97,NE,45,0.0,0.0,77,0.00,,,0.00,WUHU21623XXSP,2013-12-02 08:49:00,
2013-12-02 03:54:00,32.4,26.0,29.96,NE,45,0.0,0.0,77,0.00,,,0.00,WUHU21623XXSP,2013-12-02 08:54:00,
2013-12-02 03:59:00,32.4,26.0,29.96,NE,45,0.0,0.0,77,0.00,,,0.00,WUHU21623XXSP,2013-12-02 08:59:00,
2013-12-02 04:04:00,32.4,26.0,29.96,NE,45,0.0,0.0,77,0.00,,,0.00,WUHU21623XXSP,2013-12-02 09:04:00,
2013-12-02 04:16:00,32.5,26.1,29.96,NE,45,0.0,0.0,77,0.00,,,0.00,WUHU21623XXSP,2013-12-02 09:16:00,
2013-12-02 04:21:00,32.5,26.1,29.96,NE,45,0.0,0.0,77,0.00,,,0.00,WUHU21623XXSP,2013-12-02 09:21:00,
2013-12-02 04:26:00,32.5,26.1,29.95,NE,45,0.0,0.0,77,0.00,,,0.00,WUHU21623XXSP,2013-12-02 09:26:00,
2013-12-02 04:31:00,32.5,26.1,29.95,NE,45,0.0,0.0,77,0.00,,,0.00,WUHU21623XXSP,2013-12-02 09:31:00,
2013-12-02 04:36:00,32.5,26.1,29.95,NE,45,0.0,0.0,77,0.00,,,0.00,WUHU21623XXSP,2013-12-02 09:36:00,
2013-12-02 04:41:00,32.5,26.1,29.95,NE,45,0.0,0.0,77,0.00,,,0.00,WUHU21623XXSP,2013-12-02 09:41:00,
2013-12-02 04:46:00,32.5,26.1,29.95,NE,45,0.0,0.0,77,0.00,,,0.00,WUHU21623XXSP,2013-12-02 09:46:00,
2013-12-02 04:51:00,32.5,26.1,29.95,NE,45,0.0,0.0,77,0.00,,,0.00,WUHU21623XXSP,2013-12-02 09:51:00,
2013-12-02 04:56:00,32.5,26.1,29.95,NE,45,0.0,0.0,77,0.00,,,0.00,WUHU21623XXSP,2013-12-02 09:56:00,
2013-12-02 05:01:00,32.5,26.1,29.95,NE,45,0.0,0.0,77,0.00,,,0.00,WUHU21623XXSP,2013-12-02 10:01:00,
2013-12-02 05:08:00,32.5,26.1,29.95,NE,45,0.0,0.0,77,0.00,,,0.00,WUHU21623XXSP,2013-12-02 10:08:00,
2013-12-02 05:13:00,32.5,26.4,29.95,NE,45,0.0,0.0,78,0.00,,,0.00,WUHU21623XXSP,2013-12-02 10:13:00,
2013-12-02 05:18:00,32.5,26.4,29.95,NE,45,0.0,0.0,78,0.00,,,0.00,WUHU21623XXSP,2013-12-02 10:18:00,
2013-12-02 05:23:00,32.7,26.6,29.96,NE,45,0.0,0.0,78,0.00,,,0.00,WUHU21623XXSP,2013-12-02 10:23:00,
2013-12-02 05:28:00,32.7,26.6,29.96,NE,45,0.0,0.0,78,0.00,,,0.00,WUHU21623XXSP,2013-12-02 10:28:00,
2013-12-02 05:33:00,32.7,26.6,29.96,NE,45,0.0,0.0,78,0.00,,,0.00,WUHU21623XXSP,2013-12-02 10:33:00,
2013-12-02 05:38:00,32.7,26.6,29.96,NE,45,0.0,0.0,78,0.00,,,0.00,WUHU21623XXSP,2013-12-02 10:38:00,
2013-12-02 05:43:00,32.7,26.6,29.95,NE,45,0.0,0.0,78,0.00,,,0.00,WUHU21623XXSP,2013-12-02 10:43:00,
2013-12-02 05:48:00,32.7,26.6,29.95,NE,45,0.0,0.0,78,0.00,,,0.00,WUHU21623XXSP,2013-12-02 10:48:00,
2013-12-02 05:53:00,32.7,26.6,29.95,NE,45,0.0,0.0,78,0.00,,,0.00,WUHU21623XXSP,2013-12-02 10:53:00,
2013-12-02 05:58:00,32.7,26.6,29.96,NE,45,0.0,0.0,78,0.00,,,0.00,WUHU21623XXSP,2013-12-02 10:58:00,
2013-12-02 06:03:00,32.7,26.6,29.96,NE,45,0.0,0.0,78,0.00,,,0.00,WUHU21623XXSP,2013-12-02 11:03:00,
2013-12-02 06:08:00,32.7,26.6,29.96,NE,45,0.0,0.0,78,0.00,,,0.00,WUHU21623XXSP,2013-12-02 11:08:00,
2013-12-02 06:13:00,32.7,26.6,29.95,NE,45,0.0,0.0,78,0.00,,,0.00,WUHU21623XXSP,2013-12-02 11:13:00,
2013-12-02 06:18:00,32.7,26.6,29.95,NE,45,0.0,0.0,78,0.00,,,0.00,WUHU21623XXSP,2013-12-02 11:18:00,
2013-12-02 06:23:00,32.7,26.6,29.94,NE,45,0.0,0.0,78,0.00,,,0.00,WUHU21623XXSP,2013-12-02 11:23:00,
2013-12-02 06:28:00,32.7,26.6,29.94,NE,45,0.0,0.0,78,0.00,,,0.00,WUHU21623XXSP,2013-12-02 11:28:00,
2013-12-02 06:33:00,32.7,26.6,29.94,NE,45,0.0,0.0,78,0.00,,,0.00,WUHU21623XXSP,2013-12-02 11:33:00,
2013-12-02 06:38:00,32.5,26.4,29.94,NE,45,0.0,0.0,78,0.00,,,0.00,WUHU21623XXSP,2013-12-02 11:38:00,
2013-12-02 06:43:00,32.5,26.4,29.94,NE,45,0.0,0.0,78,0.00,,,0.00,WUHU21623XXSP,2013-12-02 11:43:00,
2013-12-02 06:48:00,32.5,26.4,29.93,NE,45,0.0,0.0,78,0.00,,,0.00,WUHU21623XXSP,2013-12-02 11:48:00,
2013-12-02 06:53:00,32.4,26.3,29.94,NE,45,0.0,0.0,78,0.00,,,0.00,WUHU21623XXSP,2013-12-02 11:53:00,
2013-12-02 06:58:00,32.2,26.1,29.94,NE,45,0.0,0.0,78,0.00,,,0.00,WUHU21623XXSP,2013-12-02 11:58:00,
2013-12-02 07:03:00,32.2,26.1,29.94,NE,45,0.0,0.0,78,0.00,,,0.00,WUHU21623XXSP,2013-12-02 12:03:00,
2013-12-02 07:08:00,31.8,25.8,29.94,NE,45,0.0,0.0,78,0.00,,,0.00,WUHU21623XXSP,2013-12-02 12:08:00,
2013-12-02 07:13:00,31.8,25.8,29.94,NE,45,0.0,0.0,78,0.00,,,0.00,WUHU21623XXSP,2013-12-02 12:13:00,
2013-12-02 07:18:00,31.8,25.8,29.94,NE,45,0.0,0.0,78,0.00,,,0.00,WUHU21623XXSP,2013-12-02 12:18:00,
2013-12-02 07:23:00,31.8,25.8,29.94,East,90,0.0,0.0,78,0.00,,,0.00,WUHU21623XXSP,2013-12-02 12:23:00,
2013-12-02 07:28:00,31.8,26.1,29.94,East,90,0.0,0.0,79,0.00,,,0.00,WUHU21623XXSP,2013-12-02 12:28:00,
2013-12-02 07:33:00,31.8,26.1,29.94,East,90,0.0,0.0,79,0.00,,,0.00,WUHU21623XXSP,2013-12-02 12:33:00,
2013-12-02 07:38:00,32.0,26.3,29.94,East,90,0.0,0.0,79,0.00,,,0.00,WUHU21623XXSP,2013-12-02 12:38:00,
2013-12-02 07:43:00,32.2,26.4,29.94,East,90,0.0,0.0,79,0.00,,,0.00,WUHU21623XXSP,2013-12-02 12:43:00,
2013-12-02 07:48:00,32.2,26.4,29.94,East,90,0.0,0.0,79,0.00,,,0.00,WUHU21623XXSP,2013-12-02 12:48:00,
2013-12-02 07:53:00,32.2,26.4,29.94,East,90,0.0,0.0,79,0.00,,,0.00,WUHU21623XXSP,2013-12-02 12:53:00,
2013-12-02 07:58:00,32.2,26.4,29.93,East,90,0.0,0.0,79,0.00,,,0.00,WUHU21623XXSP,2013-12-02 12:58:00,
2013-12-02 08:03:00,32.2,26.4,29.93,East,90,0.0,0.0,79,0.00,,,0.00,WUHU21623XXSP,2013-12-02 13:03:00,
2013-12-02 08:08:00,32.2,26.4,29.93,ENE,67,0.0,0.0,79,0.00,,,0.00,WUHU21623XXSP,2013-12-02 13:08:00,
2013-12-02 08:13:00,32.4,26.6,29.92,ENE,67,0.0,0.0,79,0.00,,,0.00,WUHU21623XXSP,2013-12-02 13:13:00,
2013-12-02 08:18:00,32.4,26.6,29.92,ENE,67,0.0,0.0,79,0.00,,,0.00,WUHU21623XXSP,2013-12-02 13:18:00,
2013-12-02 08:23:00,32.5,26.8,29.92,ESE,112,0.0,0.0,79,0.00,,,0.00,WUHU21623XXSP,2013-12-02 13:23:00,
2013-12-02 08:28:00,32.5,26.8,29.92,ESE,112,0.0,0.0,79,0.00,,,0.00,WUHU21623XXSP,2013-12-02 13:28:00,
2013-12-02 08:33:00,32.5,26.8,29.92,ESE,112,0.0,0.0,79,0.00,,,0.00,WUHU21623XXSP,2013-12-02 13:33:00,
2013-12-02 08:38:00,32.5,26.8,29.92,SE,135,0.0,0.0,79,0.00,,,0.00,WUHU21623XXSP,2013-12-02 13:38:00,
2013-12-02 08:43:00,32.7,26.9,29.92,SE,135,0.0,0.0,79,0.00,,,0.00,WUHU21623XXSP,2013-12-02 13:43:00,
2013-12-02 08:48:00,32.7,26.9,29.92,SE,135,0.0,0.0,79,0.00,,,0.00,WUHU21623XXSP,2013-12-02 13:48:00,
2013-12-02 08:53:00,32.7,26.9,29.92,SE,135,0.0,0.0,79,0.00,,,0.00,WUHU21623XXSP,2013-12-02 13:53:00,
2013-12-02 08:58:00,32.9,27.1,29.92,SE,135,0.0,0.0,79,0.00,,,0.00,WUHU21623XXSP,2013-12-02 13:58:00,
2013-12-02 09:03:00,33.1,27.2,29.93,SE,135,0.0,0.0,79,0.00,,,0.00,WUHU21623XXSP,2013-12-02 14:03:00,
2013-12-02 09:08:00,33.3,27.7,29.93,SE,135,0.0,0.0,80,0.00,,,0.00,WUHU21623XXSP,2013-12-02 14:08:00,
2013-12-02 09:13:00,33.3,27.7,29.93,SE,135,0.0,0.0,80,0.00,,,0.00,WUHU21623XXSP,2013-12-02 14:13:00,
2013-12-02 09:18:00,33.6,28.1,29.93,SE,135,0.0,0.0,80,0.00,,,0.00,WUHU21623XXSP,2013-12-02 14:18:00,
2013-12-02 09:23:00,34.0,28.4,29.93,SE,135,0.0,0.0,80,0.00,,,0.00,WUHU21623XXSP,2013-12-02 14:23:00,
2013-12-02 09:28:00,34.3,28.8,29.92,SE,135,0.0,0.0,80,0.00,,,0.00,WUHU21623XXSP,2013-12-02 14:28:00,
2013-12-02 09:33:00,34.9,29.3,29.92,SE,135,0.0,0.0,80,0.00,,,0.00,WUHU21623XXSP,2013-12-02 14:33:00,
2013-12-02 09:38:00,35.2,29.7,29.93,SE,135,0.0,0.0,80,0.00,,,0.00,WUHU21623XXSP,2013-12-02 14:38:00,
2013-12-02 09:43:00,35.4,29.8,29.93,SE,135,0.0,0.0,80,0.00,,,0.00,WUHU21623XXSP,2013-12-02 14:43:00,
2013-12-02 09:48:00,35.4,29.5,29.93,ESE,112,0.0,0.0,79,0.00,,,0.00,WUHU21623XXSP,2013-12-02 14:48:00,
2013-12-02 09:53:00,35.8,29.9,29.93,ESE,112,0.0,0.0,79,0.00,,,0.00,WUHU21623XXSP,2013-12-02 14:53:00,
2013-12-02 09:58:00,35.8,29.9,29.93,ESE,112,0.0,0.0,79,0.00,,,0.00,WUHU21623XXSP,2013-12-02 14:58:00,
2013-12-02 10:03:00,35.8,29.9,29.92,East,90,0.0,0.0,79,0.00,,,0.00,WUHU21623XXSP,2013-12-02 15:03:00,
2013-12-02 10:08:00,35.8,29.9,29.92,ENE,67,0.0,0.0,79,0.00,,,0.00,WUHU21623XXSP,2013-12-02 15:08:00,
2013-12-02 10:13:00,35.8,29.6,29.93,ESE,112,0.0,0.0,78,0.00,,,0.00,WUHU21623XXSP,2013-12-02 15:13:00,
2013-12-02 10:18:00,35.8,29.6,29.93,East,90,0.0,0.0,78,0.00,,,0.00,WUHU21623XXSP,2013-12-02 15:18:00,
2013-12-02 10:23:00,35.8,29.6,29.93,ESE,112,0.0,0.0,78,0.00,,,0.00,WUHU21623XXSP,2013-12-02 15:23:00,
2013-12-02 10:28:00,35.8,29.6,29.93,ESE,112,0.0,0.0,78,0.00,,,0.00,WUHU21623XXSP,2013-12-02 15:28:00,
2013-12-02 10:33:00,35.8,29.6,29.93,ESE,112,0.0,0.0,78,0.00,,,0.00,WUHU21623XXSP,2013-12-02 15:33:00,
2013-12-02 10:38:00,36.1,29.9,29.92,ESE,112,0.0,0.0,78,0.00,,,0.00,WUHU21623XXSP,2013-12-02 15:38:00,
2013-12-02 10:43:00,36.3,30.1,29.93,ESE,112,0.0,0.0,78,0.00,,,0.00,WUHU21623XXSP,2013-12-02 15:43:00,
2013-12-02 10:48:00,36.7,30.5,29.93,ENE,67,0.0,0.0,78,0.00,,,0.00,WUHU21623XXSP,2013-12-02 15:48:00,
2013-12-02 10:53:00,37.0,30.8,29.93,ESE,112,2.5,2.5,78,0.00,,,0.00,WUHU21623XXSP,2013-12-02 15:53:00,
2013-12-02 10:58:00,37.2,31.0,29.93,East,90,0.0,2.5,78,0.00,,,0.00,WUHU21623XXSP,2013-12-02 15:58:00,
2013-12-02 11:03:00,37.4,30.9,29.93,SE,135,0.0,0.0,77,0.00,,,0.00,WUHU21623XXSP,2013-12-02 16:03:00,
2013-12-02 11:08:00,37.4,30.9,29.93,SSE,157,3.4,3.4,77,0.00,,,0.00,WUHU21623XXSP,2013-12-02 16:08:00,
2013-12-02 11:13:00,37.5,31.0,29.93,SSE,157,0.0,3.4,77,0.00,,,0.00,WUHU21623XXSP,2013-12-02 16:13:00,
2013-12-02 11:18:00,37.9,31.0,29.92,ESE,112,0.0,0.0,76,0.00,,,0.00,WUHU21623XXSP,2013-12-02 16:18:00,
2013-12-02 11:23:00,38.0,31.1,29.92,ENE,67,0.0,0.0,76,0.00,,,0.00,WUHU21623XXSP,2013-12-02 16:23:00,
2013-12-02 11:28:00,38.0,31.1,29.92,ESE,112,3.4,3.4,76,0.00,,,0.00,WUHU21623XXSP,2013-12-02 16:28:00,
2013-12-02 11:33:00,38.1,30.6,29.92,ESE,112,3.4,3.4,74,0.00,,,0.00,WUHU21623XXSP,2013-12-02 16:33:00,
2013-12-02 11:38:00,37.6,29.8,29.92,SE,124,3.7,3.8,73,0.00,,,0.00,WUHU21623XXSP,2013-12-02 16:38:00,
2013-12-02 11:43:00,37.3,29.5,29.92,SE,135,3.6,3.8,73,0.00,,,0.00,WUHU21623XXSP,2013-12-02 16:43:00,
2013-12-02 11:48:00,37.0,28.9,29.92,SE,135,3.6,3.6,72,0.00,,,0.00,WUHU21623XXSP,2013-12-02 16:48:00,
2013-12-02 11:53:00,36.8,28.6,29.91,SSW,202,0.0,3.6,72,0.00,,,0.00,WUHU21623XXSP,2013-12-02 16:53:00,
2013-12-02 11:58:00,36.5,28.7,29.91,SE,135,0.0,0.0,73,0.00,,,0.00,WUHU21623XXSP,2013-12-02 16:58:00,
2013-12-02 12:03:00,36.2,28.5,29.90,ENE,67,0.0,0.0,73,0.00,,,0.00,WUHU21623XXSP,2013-12-02 17:03:00,
2013-12-02 12:08:00,36.0,27.9,29.90,SE,135,0.0,0.0,72,0.00,,,0.00,WUHU21623XXSP,2013-12-02 17:08:00,
2013-12-02 12:13:00,35.7,27.6,29.90,SE,135,0.0,0.0,72,0.00,,,0.00,WUHU21623XXSP,2013-12-02 17:13:00,
2013-12-02 12:18:00,35.5,27.4,29.90,ESE,112,0.0,0.0,72,0.00,,,0.00,WUHU21623XXSP,2013-12-02 17:18:00,
2013-12-02 12:23:00,35.2,27.2,29.90,ENE,67,0.0,0.0,72,0.00,,,0.00,WUHU21623XXSP,2013-12-02 17:23:00,
2013-12-02 12:28:00,35.2,27.2,29.89,ENE,67,0.0,0.0,72,0.00,,,0.00,WUHU21623XXSP,2013-12-02 17:28:00,
2013-12-02 12:33:00,35.2,27.1,29.89,SSE,157,0.0,0.0,72,0.00,,,0.00,WUHU21623XXSP,2013-12-02 17:33:00,
2013-12-02 12:38:00,35.0,26.6,29.89,ENE,67,1.8,1.8,71,0.00,,,0.00,WUHU21623XXSP,2013-12-02 17:38:00,
2013-12-02 12:43:00,35.0,26.6,29.89,SE,135,0.0,1.8,71,0.00,,,0.00,WUHU21623XXSP,2013-12-02 17:43:00,
2013-12-02 12:48:00,34.9,26.5,29.88,SE,135,0.0,1.8,71,0.00,,,0.00,WUHU21623XXSP,2013-12-02 17:48:00,
2013-12-02 12:53:00,34.7,26.4,29.88,SE,135,0.0,0.0,71,0.00,,,0.00,WUHU21623XXSP,2013-12-02 17:53:00,
2013-12-02 12:58:00,34.8,26.4,29.88,ENE,67,0.0,0.0,71,0.00,,,0.00,WUHU21623XXSP,2013-12-02 17:58:00,
2013-12-02 13:03:00,34.8,26.5,29.88,ESE,112,1.1,1.1,71,0.00,,,0.00,WUHU21623XXSP,2013-12-02 18:03:00,
2013-12-02 13:08:00,34.7,26.3,29.88,ESE,112,3.4,3.4,71,0.00,,,0.00,WUHU21623XXSP,2013-12-02 18:08:00,
2013-12-02 13:13:00,34.8,26.4,29.87,SSE,157,0.0,3.4,71,0.00,,,0.00,WUHU21623XXSP,2013-12-02 18:13:00,
2013-12-02 13:18:00,34.9,26.5,29.87,SSE,157,0.0,0.0,71,0.00,,,0.00,WUHU21623XXSP,2013-12-02 18:18:00,
2013-12-02 13:23:00,34.9,26.5,29.87,SSE,157,0.0,0.0,71,0.00,,,0.00,WUHU21623XXSP,2013-12-02 18:23:00,
2013-12-02 13:28:00,35.0,26.6,29.87,ENE,67,0.0,0.0,71,0.00,,,0.00,WUHU21623XXSP,2013-12-02 18:28:00,
2013-12-02 13:33:00,35.1,26.7,29.87,ENE,67,0.0,0.0,71,0.00,,,0.00,WUHU21623XXSP,2013-12-02 18:33:00,
2013-12-02 13:38:00,35.0,26.6,29.87,ESE,112,2.9,2.9,71,0.00,,,0.00,WUHU21623XXSP,2013-12-02 18:38:00,
2013-12-02 13:43:00,35.2,26.8,29.86,SE,135,0.0,2.9,71,0.00,,,0.00,WUHU21623XXSP,2013-12-02 18:43:00,
2013-12-02 13:48:00,35.4,27.0,29.86,ENE,67,0.0,0.0,71,0.00,,,0.00,WUHU21623XXSP,2013-12-02 18:48:00,
2013-12-02 13:53:00,35.4,26.7,29.86,SE,135,6.7,6.7,70,0.00,,,0.00,WUHU21623XXSP,2013-12-02 18:53:00,
2013-12-02 13:58:00,35.4,26.7,29.86,SE,135,1.8,6.7,70,0.00,,,0.00,WUHU21623XXSP,2013-12-02 18:58:00,
2013-12-02 14:03:00,35.4,26.7,29.85,ENE,67,0.0,1.8,70,0.00,,,0.00,WUHU21623XXSP,2013-12-02 19:03:00,
2013-12-02 14:08:00,35.4,26.7,29.85,ENE,67,0.0,1.8,70,0.00,,,0.00,WUHU21623XXSP,2013-12-02 19:08:00,
2013-12-02 14:13:00,35.4,26.7,29.85,ENE,67,0.0,0.0,70,0.00,,,0.00,WUHU21623XXSP,2013-12-02 19:13:00,
2013-12-02 14:18:00,35.7,26.9,29.85,ENE,67,0.0,0.0,70,0.00,,,0.00,WUHU21623XXSP,2013-12-02 19:18:00,
2013-12-02 14:23:00,35.5,26.8,29.85,South,180,0.0,0.0,70,0.00,,,0.00,WUHU21623XXSP,2013-12-02 19:23:00,
2013-12-02 14:28:00,35.6,26.9,29.85,SE,135,3.8,3.8,70,0.00,,,0.00,WUHU21623XXSP,2013-12-02 19:28:00,
2013-12-02 14:33:00,35.7,26.9,29.84,East,90,0.0,3.8,70,0.00,,,0.00,WUHU21623XXSP,2013-12-02 19:33:00,
2013-12-02 14:38:00,35.8,27.0,29.84,SSE,157,0.0,0.0,70,0.00,,,0.00,WUHU21623XXSP,2013-12-02 19:38:00,
2013-12-02 14:43:00,35.9,27.1,29.84,SSE,157,0.0,0.0,70,0.00,,,0.00,WUHU21623XXSP,2013-12-02 19:43:00,
2013-12-02 14:48:00,36.0,27.2,29.84,ENE,67,0.0,0.0,70,0.00,,,0.00,WUHU21623XXSP,2013-12-02 19:48:00,
2013-12-02 14:53:00,36.1,27.4,29.84,ENE,67,0.0,0.0,70,0.00,,,0.00,WUHU21623XXSP,2013-12-02 19:53:00,
2013-12-02 14:58:00,36.3,27.5,29.84,ENE,67,0.0,0.0,70,0.00,,,0.00,WUHU21623XXSP,2013-12-02 19:58:00,
2013-12-02 15:03:00,36.4,27.7,29.84,SE,135,2.9,2.9,70,0.00,,,0.00,WUHU21623XXSP,2013-12-02 20:03:00,
2013-12-02 15:08:00,36.6,27.8,29.84,SE,135,2.9,2.9,70,0.00,,,0.00,WUHU21623XXSP,2013-12-02 20:08:00,
2013-12-02 15:13:00,36.7,27.9,29.83,East,90,0.0,2.9,70,0.00,,,0.00,WUHU21623XXSP,2013-12-02 20:13:00,
2013-12-02 15:18:00,36.7,27.9,29.84,SE,135,0.0,2.9,70,0.00,,,0.00,WUHU21623XXSP,2013-12-02 20:18:00,
2013-12-02 15:23:00,36.7,27.9,29.84,ESE,112,0.0,0.0,70,0.00,,,0.00,WUHU21623XXSP,2013-12-02 20:23:00,
2013-12-02 15:28:00,36.9,28.1,29.83,ESE,112,0.0,0.0,70,0.00,,,0.00,WUHU21623XXSP,2013-12-02 20:28:00,
2013-12-02 15:33:00,36.9,28.1,29.84,ENE,67,0.0,0.0,70,0.00,,,0.00,WUHU21623XXSP,2013-12-02 20:33:00,
2013-12-02 15:38:00,36.9,28.1,29.84,ENE,67,0.0,0.0,70,0.00,,,0.00,WUHU21623XXSP,2013-12-02 20:38:00,
2013-12-02 15:43:00,37.2,28.4,29.84,East,90,0.0,0.7,70,0.00,,,0.00,WUHU21623XXSP,2013-12-02 20:43:00,
2013-12-02 15:48:00,37.4,28.9,29.84,ESE,112,0.0,0.7,71,0.00,,,0.00,WUHU21623XXSP,2013-12-02 20:48:00,
2013-12-02 15:53:00,37.6,29.1,29.84,SE,135,0.0,0.0,71,0.00,,,0.00,WUHU21623XXSP,2013-12-02 20:53:00,
2013-12-02 15:58:00,37.8,29.3,29.84,ENE,67,0.0,0.0,71,0.00,,,0.00,WUHU21623XXSP,2013-12-02 20:58:00,
2013-12-02 16:03:00,37.9,29.4,29.84,ESE,112,0.0,0.0,71,0.00,,,0.00,WUHU21623XXSP,2013-12-02 21:03:00,
2013-12-02 16:08:00,38.0,29.5,29.84,SSE,157,5.1,5.1,71,0.00,,,0.00,WUHU21623XXSP,2013-12-02 21:08:00,
2013-12-02 16:13:00,38.0,29.5,29.84,ENE,67,0.0,5.1,71,0.00,,,0.00,WUHU21623XXSP,2013-12-02 21:13:00,
2013-12-02 16:18:00,38.3,29.8,29.84,ESE,112,0.0,5.1,71,0.00,,,0.00,WUHU21623XXSP,2013-12-02 21:18:00,
2013-12-02 16:23:00,38.6,30.1,29.84,ESE,112,0.0,0.0,71,0.00,,,0.00,WUHU21623XXSP,2013-12-02 21:23:00,
2013-12-02 16:28:00,38.7,30.2,29.85,ESE,112,0.0,0.0,71,0.00,,,0.00,WUHU21623XXSP,2013-12-02 21:28:00,
2013-12-02 16:33:00,38.9,30.3,29.85,SE,135,0.0,0.0,71,0.00,,,0.00,WUHU21623XXSP,2013-12-02 21:33:00,
2013-12-02 16:38:00,39.2,30.6,29.84,ENE,67,0.0,0.0,71,0.00,,,0.00,WUHU21623XXSP,2013-12-02 21:38:00,
2013-12-02 16:43:00,39.3,30.7,29.85,SE,135,2.0,2.0,71,0.00,,,0.00,WUHU21623XXSP,2013-12-02 21:43:00,
2013-12-02 16:48:00,39.6,31.0,29.85,SSE,157,3.8,3.8,71,0.00,,,0.00,WUHU21623XXSP,2013-12-02 21:48:00,
2013-12-02 16:53:00,39.9,31.7,29.84,ENE,67,0.0,3.8,72,0.00,,,0.00,WUHU21623XXSP,2013-12-02 21:53:00,
2013-12-02 16:58:00,40.0,31.8,29.84,ENE,67,0.0,0.0,72,0.00,,,0.00,WUHU21623XXSP,2013-12-02 21:58:00,
2013-12-02 17:03:00,40.1,31.8,29.84,ENE,67,0.0,0.0,72,0.00,,,0.00,WUHU21623XXSP,2013-12-02 22:03:00,
2013-12-02 17:08:00,39.9,31.6,29.84,ESE,112,0.0,0.0,72,0.00,,,0.00,WUHU21623XXSP,2013-12-02 22:08:00,
2013-12-02 17:13:00,39.9,31.6,29.84,SE,135,0.0,0.0,72,0.00,,,0.00,WUHU21623XXSP,2013-12-02 22:13:00,
2013-12-02 17:18:00,39.7,31.4,29.85,SE,135,0.0,0.0,72,0.00,,,0.00,WUHU21623XXSP,2013-12-02 22:18:00,
2013-12-02 17:23:00,39.7,31.4,29.85,ENE,67,0.0,0.0,72,0.00,,,0.00,WUHU21623XXSP,2013-12-02 22:23:00,
2013-12-02 17:28:00,39.6,31.2,29.85,ENE,67,0.0,0.0,72,0.00,,,0.00,WUHU21623XXSP,2013-12-02 22:28:00,
2013-12-02 17:33:00,39.4,31.0,29.84,East,90,0.0,0.0,72,0.00,,,0.00,WUHU21623XXSP,2013-12-02 22:33:00,
2013-12-02 17:38:00,39.4,31.0,29.84,East,90,0.0,0.0,72,0.00,,,0.00,WUHU21623XXSP,2013-12-02 22:38:00,
2013-12-02 17:43:00,39.2,30.9,29.84,ENE,67,0.0,2.5,72,0.00,,,0.00,WUHU21623XXSP,2013-12-02 22:43:00,
2013-12-02 17:48:00,39.0,30.7,29.84,ESE,112,0.0,2.5,72,0.00,,,0.00,WUHU21623XXSP,2013-12-02 22:48:00,
2013-12-02 17:53:00,39.0,30.7,29.84,ENE,67,0.0,0.0,72,0.00,,,0.00,WUHU21623XXSP,2013-12-02 22:53:00,
2013-12-02 17:58:00,39.0,31.0,29.85,SE,135,0.0,0.0,73,0.00,,,0.00,WUHU21623XXSP,2013-12-02 22:58:00,
2013-12-02 18:03:00,39.0,31.0,29.85,ESE,112,0.0,0.0,73,0.00,,,0.00,WUHU21623XXSP,2013-12-02 23:03:00,
2013-12-02 18:08:00,38.8,30.9,29.85,ENE,67,0.0,0.0,73,0.00,,,0.00,WUHU21623XXSP,2013-12-02 23:08:00,
2013-12-02 18:13:00,38.8,30.9,29.85,ENE,67,0.0,0.0,73,0.00,,,0.00,WUHU21623XXSP,2013-12-02 23:13:00,
2013-12-02 18:18:00,38.5,30.5,29.85,ESE,112,0.0,0.0,73,0.00,,,0.00,WUHU21623XXSP,2013-12-02 23:18:00,
2013-12-02 18:23:00,38.5,30.5,29.85,ESE,112,0.0,0.0,73,0.00,,,0.00,WUHU21623XXSP,2013-12-02 23:23:00,
2013-12-02 18:28:00,38.3,30.7,29.85,ENE,67,0.0,0.0,74,0.00,,,0.00,WUHU21623XXSP,2013-12-02 23:28:00,
2013-12-02 18:33:00,38.1,30.5,29.85,ENE,67,0.0,0.0,74,0.00,,,0.00,WUHU21623XXSP,2013-12-02 23:33:00,
2013-12-02 18:38:00,37.9,30.4,29.85,ENE,67,0.0,0.0,74,0.00,,,0.00,WUHU21623XXSP,2013-12-02 23:38:00,
2013-12-02 18:43:00,37.9,30.7,29.85,SE,135,0.0,0.0,75,0.00,,,0.00,WUHU21623XXSP,2013-12-02 23:43:00,
2013-12-02 18:48:00,37.8,30.5,29.85,ESE,112,0.0,0.0,75,0.00,,,0.00,WUHU21623XXSP,2013-12-02 23:48:00,
2013-12-02 18:53:00,37.6,30.4,29.85,ESE,112,0.0,0.0,75,0.00,,,0.00,WUHU21623XXSP,2013-12-02 23:53:00,
2013-12-02 18:58:00,37.6,30.4,29.85,SSE,157,0.0,0.0,75,0.00,,,0.00,WUHU21623XXSP,2013-12-02 23:58:00,
2013-12-02 19:03:00,37.6,30.4,29.85,SSE,157,0.0,0.0,75,0.00,,,0.00,WUHU21623XXSP,2013-12-03 00:03:00,
2013-12-02 19:08:00,37.2,30.3,29.85,ENE,67,0.0,0.0,76,0.00,,,0.00,WUHU21623XXSP,2013-12-03 00:08:00,
2013-12-02 19:13:00,37.2,30.3,29.85,SSE,157,0.0,0.0,76,0.00,,,0.00,WUHU21623XXSP,2013-12-03 00:13:00,
2013-12-02 19:18:00,37.0,30.2,29.85,ENE,67,0.0,0.0,76,0.00,,,0.00,WUHU21623XXSP,2013-12-03 00:18:00,
2013-12-02 19:23:00,37.0,30.5,29.85,ENE,67,0.0,0.0,77,0.00,,,0.00,WUHU21623XXSP,2013-12-03 00:23:00,
2013-12-02 19:28:00,36.9,30.3,29.85,ENE,67,0.0,0.0,77,0.00,,,0.00,WUHU21623XXSP,2013-12-03 00:28:00,
2013-12-02 19:33:00,36.7,30.1,29.85,ENE,67,0.0,0.0,77,0.00,,,0.00,WUHU21623XXSP,2013-12-03 00:33:00,
2013-12-02 19:38:00,36.7,30.1,29.85,SE,135,0.0,0.0,77,0.00,,,0.00,WUHU21623XXSP,2013-12-03 00:38:00,
2013-12-02 19:43:00,36.5,30.3,29.85,East,90,0.0,0.0,78,0.00,,,0.00,WUHU21623XXSP,2013-12-03 00:43:00,
2013-12-02 19:48:00,36.5,30.3,29.85,ENE,67,0.0,0.0,78,0.00,,,0.00,WUHU21623XXSP,2013-12-03 00:48:00,
2013-12-02 19:53:00,36.3,30.1,29.85,ENE,67,0.0,0.0,78,0.00,,,0.00,WUHU21623XXSP,2013-12-03 00:53:00,
2013-12-02 19:58:00,36.3,30.1,29.85,ENE,67,0.0,0.0,78,0.00,,,0.00,WUHU21623XXSP,2013-12-03 00:58:00,
2013-12-02 20:03:00,36.3,30.1,29.85,SE,135,0.0,0.0,78,0.00,,,0.00,WUHU21623XXSP,2013-12-03 01:03:00,
2013-12-02 20:08:00,36.1,29.9,29.85,ENE,67,0.0,0.0,78,0.00,,,0.00,WUHU21623XXSP,2013-12-03 01:08:00,
2013-12-02 20:13:00,36.1,29.9,29.85,ENE,67,0.0,0.0,78,0.00,,,0.00,WUHU21623XXSP,2013-12-03 01:13:00,
2013-12-02 20:18:00,36.0,30.1,29.85,SE,135,0.0,0.0,79,0.00,,,0.00,WUHU21623XXSP,2013-12-03 01:18:00,
2013-12-02 20:23:00,36.0,30.1,29.84,East,90,0.0,0.0,79,0.00,,,0.00,WUHU21623XXSP,2013-12-03 01:23:00,
2013-12-02 20:28:00,35.8,29.9,29.84,ESE,112,0.0,0.0,79,0.00,,,0.00,WUHU21623XXSP,2013-12-03 01:28:00,
2013-12-02 20:33:00,35.8,29.9,29.85,ENE,67,0.0,0.0,79,0.00,,,0.00,WUHU21623XXSP,2013-12-03 01:33:00,
2013-12-02 20:38:00,35.8,29.9,29.85,SE,135,0.0,0.0,79,0.00,,,0.00,WUHU21623XXSP,2013-12-03 01:38:00,
2013-12-02 20:43:00,35.8,29.9,29.85,SE,135,0.0,0.0,79,0.00,,,0.00,WUHU21623XXSP,2013-12-03 01:43:00,
2013-12-02 20:48:00,35.6,30.0,29.85,ESE,112,0.0,0.0,80,0.00,,,0.00,WUHU21623XXSP,2013-12-03 01:48:00,
2013-12-02 20:53:00,35.6,30.0,29.84,ESE,112,0.0,0.0,80,0.00,,,0.00,WUHU21623XXSP,2013-12-03 01:53:00,
2013-12-02 20:58:00,35.4,29.8,29.84,SE,135,0.0,0.0,80,0.00,,,0.00,WUHU21623XXSP,2013-12-03 01:58:00,
2013-12-02 21:03:00,35.4,29.8,29.84,ESE,112,0.0,0.0,80,0.00,,,0.00,WUHU21623XXSP,2013-12-03 02:03:00,
2013-12-02 21:08:00,35.4,29.8,29.84,ENE,67,0.0,0.0,80,0.02,,,0.02,WUHU21623XXSP,2013-12-03 02:08:00,
2013-12-02 21:13:00,35.4,29.8,29.84,ESE,112,0.0,2.9,80,0.02,,,0.02,WUHU21623XXSP,2013-12-03 02:13:00,
2013-12-02 21:18:00,35.4,30.1,29.85,East,90,0.0,2.9,81,0.02,,,0.02,WUHU21623XXSP,2013-12-03 02:18:00,
2013-12-02 21:23:00,35.4,30.1,29.85,ESE,112,0.0,0.0,81,0.02,,,0.02,WUHU21623XXSP,2013-12-03 02:23:00,
2013-12-02 21:28:00,35.4,30.1,29.85,ESE,112,0.0,0.0,81,0.02,,,0.02,WUHU21623XXSP,2013-12-03 02:28:00,
2013-12-02 21:33:00,35.4,30.1,29.84,ENE,67,0.0,0.0,81,0.02,,,0.02,WUHU21623XXSP,2013-12-03 02:33:00,
2013-12-02 21:38:00,35.4,30.1,29.84,East,90,0.0,0.0,81,0.02,,,0.02,WUHU21623XXSP,2013-12-03 02:38:00,
2013-12-02 21:43:00,35.4,30.1,29.84,ESE,112,0.0,0.0,81,0.02,,,0.02,WUHU21623XXSP,2013-12-03 02:43:00,
2013-12-02 21:48:00,35.4,30.1,29.84,SSE,157,1.6,1.6,81,0.02,,,0.02,WUHU21623XXSP,2013-12-03 02:48:00,
2013-12-02 21:53:00,35.4,30.1,29.84,ESE,112,0.0,1.6,81,0.02,,,0.02,WUHU21623XXSP,2013-12-03 02:53:00,
2013-12-02 21:58:00,35.4,30.4,29.84,SE,135,3.4,3.4,82,0.02,,,0.02,WUHU21623XXSP,2013-12-03 02:58:00,
2013-12-02 22:03:00,35.4,30.4,29.85,ENE,67,0.0,3.4,82,0.02,,,0.02,WUHU21623XXSP,2013-12-03 03:03:00,
2013-12-02 22:08:00,35.4,30.4,29.84,East,90,0.0,4.9,82,0.00,,,0.02,WUHU21623XXSP,2013-12-03 03:08:00,
2013-12-02 22:13:00,35.4,30.4,29.84,ENE,67,1.1,4.9,82,0.00,,,0.02,WUHU21623XXSP,2013-12-03 03:13:00,
2013-12-02 22:18:00,35.4,30.4,29.85,ENE,67,1.1,1.1,82,0.00,,,0.02,WUHU21623XXSP,2013-12-03 03:18:00,
2013-12-02 22:23:00,35.4,30.4,29.84,East,90,0.0,1.1,82,0.00,,,0.02,WUHU21623XXSP,2013-12-03 03:23:00,
2013-12-02 22:28:00,35.4,30.4,29.84,East,90,0.0,0.0,82,0.00,,,0.02,WUHU21623XXSP,2013-12-03 03:28:00,
2013-12-02 22:33:00,35.4,30.4,29.84,East,90,0.0,0.0,82,0.00,,,0.02,WUHU21623XXSP,2013-12-03 03:33:00,
2013-12-02 22:38:00,35.4,30.4,29.84,ENE,67,0.0,0.0,82,0.00,,,0.02,WUHU21623XXSP,2013-12-03 03:38:00,
2013-12-02 22:43:00,35.4,30.4,29.84,ESE,112,3.1,3.1,82,0.00,,,0.02,WUHU21623XXSP,2013-12-03 03:43:00,
2013-12-02 22:48:00,35.2,30.2,29.84,ESE,112,3.1,3.1,82,0.00,,,0.02,WUHU21623XXSP,2013-12-03 03:48:00,
2013-12-02 22:53:00,35.4,30.4,29.84,ENE,67,0.0,3.1,82,0.00,,,0.02,WUHU21623XXSP,2013-12-03 03:53:00,
2013-12-02 22:58:00,35.2,30.2,29.84,ENE,67,0.0,0.0,82,0.00,,,0.02,WUHU21623XXSP,2013-12-03 03:58:00,
2013-12-02 23:03:00,35.2,30.2,29.83,ENE,67,0.0,0.0,82,0.00,,,0.02,WUHU21623XXSP,2013-12-03 04:03:00,
2013-12-02 23:08:00,35.2,30.2,29.83,SSE,157,1.3,1.3,82,0.00,,,0.02,WUHU21623XXSP,2013-12-03 04:08:00,
2013-12-02 23:13:00,35.2,30.2,29.83,East,90,0.0,1.3,82,0.00,,,0.02,WUHU21623XXSP,2013-12-03 04:13:00,
2013-12-02 23:18:00,35.2,30.2,29.84,ENE,67,0.0,1.3,82,0.00,,,0.02,WUHU21623XXSP,2013-12-03 04:18:00,
2013-12-02 23:23:00,35.2,30.5,29.83,ESE,112,0.0,0.0,83,0.00,,,0.02,WUHU21623XXSP,2013-12-03 04:23:00,
2013-12-02 23:28:00,35.2,30.5,29.84,SE,135,0.0,0.0,83,0.00,,,0.02,WUHU21623XXSP,2013-12-03 04:28:00,
2013-12-02 23:33:00,35.2,30.5,29.84,ESE,112,0.0,0.0,83,0.00,,,0.02,WUHU21623XXSP,2013-12-03 04:33:00,
2013-12-02 23:38:00,35.2,30.5,29.83,ESE,112,2.9,2.9,83,0.00,,,0.02,WUHU21623XXSP,2013-12-03 04:38:00,
2013-12-02 23:43:00,35.1,30.3,29.83,East,90,0.0,2.9,83,0.00,,,0.02,WUHU21623XXSP,2013-12-03 04:43:00,
2013-12-02 23:48:00,34.9,30.2,29.83,ESE,112,2.0,2.0,83,0.00,,,0.02,WUHU21623XXSP,2013-12-03 04:48:00,
2013-12-02 23:53:00,35.1,30.3,29.83,ESE,112,0.0,2.0,83,0.00,,,0.02,WUHU21623XXSP,2013-12-03 04:53:00,
2013-12-02 23:58:00,34.9,30.2,29.83,SE,135,0.0,0.0,83,0.00,,,0.02,WUHU21623XXSP,2013-12-03 04:58:00,